createdAt,value
2024-05-09T00:01:23.166Z,101298.91
2024-05-09T00:03:53.434Z,101291.88
2024-05-09T00:06:23.758Z,101289.19
2024-05-09T00:08:54.053Z,101288.31
2024-05-09T00:11:24.221Z,101290.03
2024-05-09T00:13:54.768Z,101284.78
2024-05-09T00:16:27.411Z,101287.53
2024-05-09T00:18:57.576Z,101287.63
2024-05-09T00:21:27.463Z,101286.75
2024-05-09T00:23:57.663Z,101292.97
2024-05-09T00:26:27.694Z,101294.69
2024-05-09T00:28:57.935Z,101285.78
2024-05-09T00:31:30.516Z,101290.19
2024-05-09T00:34:01.068Z,101290.94
2024-05-09T00:36:31.118Z,101281.97
2024-05-09T00:39:01.240Z,101288.06
2024-05-09T00:41:31.446Z,101285.38
2024-05-09T00:44:02.727Z,101278.38
2024-05-09T00:46:35.459Z,101284.50
2024-05-09T00:49:05.800Z,101283.59
2024-05-09T00:51:35.679Z,101282.59
2024-05-09T00:54:06.043Z,101272.81
2024-05-09T00:56:38.018Z,101276.44
2024-05-09T00:59:09.593Z,101271.09
2024-05-09T01:01:44.528Z,101279.88
2024-05-09T01:04:15.238Z,101273.72
2024-05-09T01:06:45.496Z,101275.47
2024-05-09T01:09:15.848Z,101273.66
2024-05-09T01:11:45.876Z,101269.38
2024-05-09T01:14:16.329Z,101264.16
2024-05-09T01:16:48.987Z,101271.38
2024-05-09T01:19:25.870Z,101269.78
2024-05-09T01:21:55.819Z,101273.44
2024-05-09T01:24:28.526Z,101273.56
2024-05-09T01:26:58.536Z,101273.66
2024-05-09T01:29:28.912Z,101272.00
2024-05-09T01:32:04.537Z,101284.44
2024-05-09T01:34:35.190Z,101273.88
2024-05-09T01:37:05.099Z,101281.06
2024-05-09T01:39:38.082Z,101273.16
2024-05-09T01:42:08.306Z,101271.44
2024-05-09T01:44:38.448Z,101269.69
2024-05-09T01:47:08.450Z,101268.81
2024-05-09T01:49:40.151Z,101258.22
2024-05-09T01:52:09.951Z,101271.47
2024-05-09T01:54:42.652Z,101274.16
2024-05-09T01:57:12.698Z,101268.78
2024-05-09T01:59:42.928Z,101266.09
2024-05-09T02:02:12.963Z,101271.34
2024-05-09T02:04:43.714Z,101265.97
2024-05-09T02:07:13.677Z,101278.34
2024-05-09T02:09:46.301Z,101276.50
2024-05-09T02:12:16.470Z,101272.03
2024-05-09T02:14:46.905Z,101278.19
2024-05-09T02:17:16.920Z,101280.78
2024-05-09T02:19:47.052Z,101283.41
2024-05-09T02:22:16.897Z,101271.84
2024-05-09T02:24:49.545Z,101280.69
2024-05-09T02:27:19.417Z,101273.56
2024-05-09T02:29:49.246Z,101270.88
2024-05-09T02:32:19.202Z,101276.13
2024-05-09T02:34:46.588Z,101277.91
2024-05-09T02:37:16.478Z,101276.06
2024-05-09T02:39:46.428Z,101274.34
2024-05-09T02:42:16.353Z,101247.97
2024-05-09T02:44:43.610Z,101280.59
2024-05-09T02:47:13.498Z,101277.94
2024-05-09T02:49:41.064Z,101273.53
2024-05-09T02:52:10.961Z,101280.63
2024-05-09T02:54:38.716Z,101272.63
2024-05-09T02:57:11.638Z,101277.06
2024-05-09T02:59:38.855Z,101272.63
2024-05-09T03:02:08.743Z,101275.22
2024-05-09T03:04:36.127Z,101268.97
2024-05-09T03:07:06.258Z,101268.91
2024-05-09T03:09:33.565Z,101273.31
2024-05-09T03:12:03.903Z,101274.16
2024-05-09T03:14:34.010Z,101270.63
2024-05-09T03:17:04.175Z,101277.66
2024-05-09T03:19:31.650Z,101266.97
2024-05-09T03:22:01.746Z,101275.81
2024-05-09T03:24:29.181Z,101274.84
2024-05-09T03:26:59.133Z,101270.44
2024-05-09T03:29:26.494Z,101273.97
2024-05-09T03:31:59.435Z,101272.16
2024-05-09T03:34:26.916Z,101271.28
2024-05-09T03:36:58.675Z,101267.78
2024-05-09T03:42:15.968Z,101269.69
2024-05-09T03:46:26.754Z,101272.41
2024-05-09T03:48:54.508Z,101271.53
2024-05-09T03:51:24.411Z,101276.91
2024-05-09T03:53:51.705Z,101265.44
2024-05-09T03:56:21.848Z,101268.94
2024-05-09T03:58:49.036Z,101268.09
2024-05-09T04:01:19.538Z,101276.13
2024-05-09T04:03:49.855Z,101269.09
2024-05-09T04:06:23.579Z,101272.72
2024-05-09T04:08:51.020Z,101270.97
2024-05-09T04:11:21.339Z,101278.94
2024-05-09T04:13:48.948Z,101240.88
2024-05-09T04:16:18.996Z,101279.53
2024-05-09T04:18:46.339Z,101283.00
2024-05-09T04:21:19.225Z,101282.94
2024-05-09T04:23:46.520Z,101280.28
2024-05-09T04:26:16.548Z,101286.47
2024-05-09T04:28:44.348Z,101273.16
2024-05-09T04:31:14.272Z,101280.22
2024-05-09T04:33:41.564Z,101281.97
2024-05-09T04:36:11.825Z,101281.00
2024-05-09T04:38:42.491Z,101283.63
2024-05-09T04:41:12.841Z,101283.59
2024-05-09T04:43:40.212Z,101284.41
2024-05-09T04:46:10.235Z,101279.03
2024-05-09T04:48:37.677Z,101290.47
2024-05-09T04:51:10.035Z,101286.88
2024-05-09T04:53:37.640Z,101284.13
2024-05-09T04:56:11.711Z,101288.47
2024-05-09T04:58:39.152Z,101299.91
2024-05-09T05:01:09.035Z,101297.09
2024-05-09T05:03:36.922Z,101301.38
2024-05-09T05:06:07.126Z,101303.91
2024-05-09T05:08:35.164Z,101299.09
2024-05-09T05:11:05.568Z,101315.31
2024-05-09T05:13:38.634Z,101308.38
2024-05-09T05:16:10.591Z,101302.81
2024-05-09T05:18:38.818Z,101301.31
2024-05-09T05:21:09.130Z,101312.00
2024-05-09T05:23:37.072Z,101308.44
2024-05-09T05:26:08.152Z,101311.94
2024-05-09T05:28:38.445Z,101309.97
2024-05-09T05:31:08.407Z,101304.41
2024-05-09T05:33:36.647Z,101312.78
2024-05-09T05:36:07.201Z,101316.00
2024-05-09T05:38:34.672Z,101317.47
2024-05-09T05:41:04.906Z,101324.97
2024-05-09T05:43:32.473Z,101323.53
2024-05-09T05:46:05.083Z,101319.69
2024-05-09T05:48:32.773Z,101325.31
2024-05-09T05:51:04.525Z,101321.16
2024-05-09T05:53:32.208Z,101326.34
2024-05-09T05:56:02.199Z,101333.97
2024-05-09T05:58:29.557Z,101330.72
2024-05-09T06:00:59.595Z,101323.41
2024-05-09T06:03:29.937Z,101334.88
2024-05-09T06:06:00.119Z,101328.50
2024-05-09T06:08:30.211Z,101331.16
2024-05-09T06:11:00.628Z,101336.13
2024-05-09T06:13:27.915Z,101342.00
2024-05-09T06:15:59.950Z,101344.66
2024-05-09T06:18:30.345Z,101339.00
2024-05-09T06:21:00.505Z,101342.63
2024-05-09T06:23:28.261Z,101343.38
2024-05-09T06:25:58.238Z,101336.59
2024-05-09T06:28:25.767Z,101336.56
2024-05-09T06:30:55.863Z,101326.69
2024-05-09T06:33:23.230Z,101331.25
2024-05-09T06:35:59.383Z,101330.66
2024-05-09T06:38:26.681Z,101333.66
2024-05-09T06:40:56.999Z,101327.28
2024-05-09T06:43:24.748Z,101336.41
2024-05-09T06:45:55.137Z,101339.38
2024-05-09T06:48:23.363Z,101340.44
2024-05-09T06:50:55.972Z,101342.09
2024-05-09T06:53:23.699Z,101339.91
2024-05-09T06:55:53.829Z,101348.97
2024-05-09T06:58:21.080Z,101339.28
2024-05-09T07:00:51.408Z,101339.41
2024-05-09T07:03:19.650Z,101342.38
2024-05-09T07:05:50.182Z,101351.88
2024-05-09T07:08:20.566Z,101352.41
2024-05-09T07:10:50.579Z,101349.34
2024-05-09T07:13:18.513Z,101350.47
2024-05-09T07:15:49.121Z,101351.72
2024-05-09T07:18:18.596Z,101356.81
2024-05-09T07:20:50.642Z,101346.88
2024-05-09T07:23:20.991Z,101351.53
2024-05-09T07:25:51.316Z,101348.81
2024-05-09T07:28:20.502Z,101344.56
2024-05-09T07:30:50.949Z,101346.63
2024-05-09T07:33:21.053Z,101348.00
2024-05-09T07:35:53.066Z,101356.22
2024-05-09T07:38:24.263Z,101351.16
2024-05-09T07:40:54.507Z,101347.66
2024-05-09T07:43:21.707Z,101348.19
2024-05-09T07:45:54.411Z,101350.78
2024-05-09T07:53:40.458Z,101356.25
2024-05-09T07:56:15.286Z,101355.34
2024-05-09T07:58:44.017Z,101351.25
2024-05-09T08:01:14.342Z,101360.19
2024-05-09T08:03:41.941Z,101361.66
2024-05-09T08:06:12.238Z,101349.78
2024-05-09T08:08:42.139Z,101347.75
2024-05-09T08:11:12.304Z,101356.28
2024-05-09T08:13:39.649Z,101356.28
2024-05-09T08:16:10.404Z,101341.09
2024-05-09T08:18:39.171Z,101345.41
2024-05-09T08:21:09.338Z,101346.22
2024-05-09T08:23:36.977Z,101346.28
2024-05-09T08:26:09.884Z,101344.06
2024-05-09T08:28:37.286Z,101337.56
2024-05-09T08:31:07.865Z,101333.97
2024-05-09T08:33:36.061Z,101327.66
2024-05-09T08:36:06.769Z,101337.47
2024-05-09T08:38:36.802Z,101330.41
2024-05-09T08:41:07.316Z,101334.16
2024-05-09T08:43:39.892Z,101334.28
2024-05-09T08:47:29.581Z,101333.34
2024-05-09T08:49:59.219Z,101323.34
2024-05-09T08:52:29.589Z,101335.25
2024-05-09T08:54:56.899Z,101340.25
2024-05-09T08:57:29.509Z,101325.84
2024-05-09T09:00:03.573Z,101334.16
2024-05-09T09:02:40.750Z,101326.66
2024-05-09T09:05:16.747Z,101325.25
2024-05-09T09:07:48.697Z,101326.22
2024-05-09T09:10:24.929Z,101313.94
2024-05-09T09:13:05.438Z,101327.94
2024-05-09T09:15:33.214Z,101332.31
2024-05-09T09:20:36.750Z,101324.91
2024-05-09T09:23:07.601Z,101324.78
2024-05-09T09:25:34.911Z,101326.28
2024-05-09T09:28:04.973Z,101334.13
2024-05-09T09:30:36.982Z,101332.19
2024-05-09T09:33:12.346Z,101329.53
2024-05-09T09:35:40.760Z,101329.56
2024-05-09T09:38:12.552Z,101319.78
2024-05-09T09:40:49.558Z,101322.56
2024-05-09T09:43:22.945Z,101313.75
2024-05-09T09:45:52.915Z,101312.41
2024-05-09T09:48:27.446Z,101305.19
2024-05-09T09:50:56.794Z,101311.72
2024-05-09T09:53:27.147Z,101317.03
2024-05-09T09:55:55.965Z,101313.22
2024-05-09T09:58:26.999Z,101303.81
2024-05-09T10:00:54.602Z,101302.41
2024-05-09T10:03:27.844Z,101308.75
2024-05-09T10:05:55.854Z,101301.31
2024-05-09T10:08:26.820Z,101300.25
2024-05-09T10:10:55.440Z,101297.94
2024-05-09T10:13:36.685Z,101286.94
2024-05-09T10:16:09.130Z,101295.34
2024-05-09T10:18:42.821Z,101289.16
2024-05-09T10:21:20.273Z,101303.78
2024-05-09T10:24:00.765Z,101291.22
2024-05-09T10:26:34.796Z,101303.94
2024-05-09T10:29:17.122Z,101295.06
2024-05-09T10:31:46.186Z,101291.59
2024-05-09T10:34:23.802Z,101285.00
2024-05-09T10:36:54.972Z,101275.34
2024-05-09T10:39:25.931Z,101273.28
2024-05-09T10:41:53.207Z,101270.25
2024-05-09T10:44:24.319Z,101278.25
2024-05-09T10:46:54.884Z,101271.50
2024-05-09T10:49:28.039Z,101276.75
2024-05-09T10:51:55.805Z,101274.16
2024-05-09T10:54:25.830Z,101274.75
2024-05-09T10:56:57.018Z,101252.44
2024-05-09T10:59:27.016Z,101256.16
2024-05-09T11:01:54.449Z,101216.63
2024-05-09T11:04:27.378Z,101253.97
2024-05-09T11:06:56.403Z,101261.72
2024-05-09T11:09:26.435Z,101257.19
2024-05-09T11:11:54.852Z,101259.34
2024-05-09T11:14:24.918Z,101257.69
2024-05-09T11:16:59.248Z,101263.16
2024-05-09T11:19:35.128Z,101266.69
2024-05-09T11:22:03.074Z,101249.00
2024-05-09T11:24:33.386Z,101238.44
2024-05-09T11:27:03.231Z,101240.50
2024-05-09T11:29:40.951Z,101242.84
2024-05-09T11:32:11.626Z,101246.34
2024-05-09T11:34:45.156Z,101242.03
2024-05-09T11:37:14.228Z,101245.34
2024-05-09T11:39:44.534Z,101243.44
2024-05-09T11:42:12.577Z,101231.81
2024-05-09T11:47:27.759Z,101221.59
2024-05-09T11:50:00.955Z,101227.28
2024-05-09T11:52:29.202Z,101225.31
2024-05-09T11:54:59.876Z,101220.84
2024-05-09T11:57:28.927Z,101216.94
2024-05-09T12:00:00.220Z,101211.34
2024-05-09T12:02:28.071Z,101208.25
2024-05-09T12:05:01.793Z,101217.09
2024-05-09T12:07:29.674Z,101212.50
2024-05-09T12:09:59.582Z,101207.13
2024-05-09T12:12:27.832Z,101205.59
2024-05-09T12:14:57.940Z,101200.41
2024-05-09T12:17:25.294Z,101195.50
2024-05-09T12:19:55.386Z,101180.47
2024-05-09T12:22:25.579Z,101177.88
2024-05-09T12:24:55.938Z,101186.88
2024-05-09T12:27:23.383Z,101181.28
2024-05-09T12:29:53.441Z,101176.28
2024-05-09T12:32:20.700Z,101179.09
2024-05-09T12:34:50.707Z,101175.75
2024-05-09T12:37:18.779Z,101183.19
2024-05-09T12:39:51.819Z,101174.28
2024-05-09T12:42:26.501Z,101162.00
2024-05-09T12:44:58.333Z,101171.19
2024-05-09T12:47:25.809Z,101168.31
2024-05-09T12:49:55.992Z,101153.41
2024-05-09T12:52:23.789Z,101164.00
2024-05-09T12:54:56.557Z,101157.22
2024-05-09T12:57:25.523Z,101154.56
2024-05-09T12:59:55.551Z,101151.00
2024-05-09T13:02:23.035Z,101147.72
2024-05-09T13:04:53.162Z,101146.66
2024-05-09T13:07:20.743Z,101138.38
2024-05-09T13:09:50.960Z,101132.44
2024-05-09T13:12:21.700Z,101129.31
2024-05-09T13:14:53.250Z,101125.38
2024-05-09T13:17:20.757Z,101126.88
2024-05-09T13:19:50.757Z,101126.09
2024-05-09T13:25:05.757Z,101122.16
2024-05-09T13:27:35.804Z,101119.13
2024-05-09T13:30:07.789Z,101113.34
2024-05-09T13:32:39.403Z,101113.69
2024-05-09T13:35:09.728Z,101109.66
2024-05-09T13:37:37.121Z,101103.25
2024-05-09T13:40:12.000Z,101110.84
2024-05-09T13:42:45.614Z,101102.38
2024-05-09T13:48:27.800Z,101090.22
2024-05-09T13:50:55.484Z,101087.09
2024-05-09T13:53:25.596Z,101083.91
2024-05-09T13:55:53.097Z,101076.75
2024-05-09T13:58:23.627Z,101086.13
2024-05-09T14:00:51.322Z,101083.81
2024-05-09T14:03:21.613Z,101083.28
2024-05-09T14:05:52.409Z,101081.75
2024-05-09T14:08:23.176Z,101052.50
2024-05-09T14:10:51.285Z,101068.59
2024-05-09T14:13:21.392Z,101054.72
2024-05-09T14:15:49.255Z,101063.41
2024-05-09T14:18:19.919Z,101059.34
2024-05-09T14:20:47.226Z,101062.94
2024-05-09T14:23:20.600Z,101058.25
2024-05-09T14:25:51.774Z,101052.03
2024-05-09T14:28:22.723Z,101046.53
2024-05-09T14:30:51.164Z,101034.94
2024-05-09T14:33:26.574Z,101041.03
2024-05-09T14:35:54.480Z,101042.84
2024-05-09T14:38:27.835Z,101042.75
2024-05-09T14:40:55.696Z,101030.16
2024-05-09T14:43:26.028Z,101031.13
2024-05-09T14:45:53.808Z,101036.13
2024-05-09T14:48:23.956Z,101034.38
2024-05-09T14:50:51.596Z,101030.84
2024-05-09T14:53:26.624Z,101015.97
2024-05-09T14:55:57.502Z,101014.56
2024-05-09T14:58:27.644Z,101011.59
2024-05-09T15:00:55.025Z,101014.09
2024-05-09T15:03:24.974Z,101002.91
2024-05-09T15:05:53.264Z,101002.78
2024-05-09T15:08:23.324Z,101002.50
2024-05-09T15:10:50.928Z,100999.69
2024-05-09T15:13:24.477Z,100994.72
2024-05-09T15:15:52.426Z,100987.09
2024-05-09T15:18:22.676Z,100979.72
2024-05-09T15:20:52.791Z,100984.16
2024-05-09T15:23:20.192Z,100987.75
2024-05-09T15:25:50.191Z,100981.44
2024-05-09T15:28:20.810Z,100980.03
2024-05-09T15:30:50.730Z,100974.50
2024-05-09T15:33:18.385Z,100965.28
2024-05-09T15:35:48.453Z,100981.69
2024-05-09T15:38:16.342Z,100974.50
2024-05-09T15:40:46.582Z,100969.63
2024-05-09T15:43:14.322Z,100968.75
2024-05-09T15:45:47.202Z,100968.28
2024-05-09T15:48:14.818Z,100959.84
2024-05-09T15:50:45.291Z,100965.72
2024-05-09T15:53:13.415Z,100958.56
2024-05-09T15:55:44.474Z,100960.28
2024-05-09T15:58:12.834Z,100963.53
2024-05-09T16:00:48.846Z,100947.16
2024-05-09T16:03:19.589Z,100965.28
2024-05-09T16:05:49.972Z,100950.06
2024-05-09T16:08:17.700Z,100950.72
2024-05-09T16:10:49.460Z,100948.00
2024-05-09T16:13:17.878Z,100958.44
2024-05-09T16:15:51.208Z,100954.97
2024-05-09T16:18:18.534Z,100965.56
2024-05-09T16:20:50.211Z,100956.91
2024-05-09T16:23:20.741Z,100948.97
2024-05-09T16:25:48.644Z,100956.34
2024-05-09T16:28:22.727Z,100949.19
2024-05-09T16:30:54.075Z,100953.09
2024-05-09T16:33:26.099Z,100952.25
2024-05-09T16:35:53.813Z,100945.41
2024-05-09T16:38:23.773Z,100947.25
2024-05-09T16:40:51.691Z,100937.34
2024-05-09T16:43:22.571Z,100940.72
2024-05-09T16:45:52.706Z,100945.25
2024-05-09T16:48:22.852Z,100937.13
2024-05-09T16:50:50.228Z,100939.63
2024-05-09T16:53:21.286Z,100933.88
2024-05-09T16:55:49.094Z,100939.28
2024-05-09T16:58:19.555Z,100941.53
2024-05-09T17:00:47.038Z,100938.75
2024-05-09T17:03:21.334Z,100933.41
2024-05-09T17:05:50.490Z,100930.59
2024-05-09T17:08:20.916Z,100940.25
2024-05-09T17:10:49.499Z,100932.31
2024-05-09T17:13:21.178Z,100936.00
2024-05-09T17:15:52.363Z,100929.13
2024-05-09T17:18:25.687Z,100937.41
2024-05-09T17:20:55.873Z,100932.88
2024-05-09T17:23:23.717Z,100928.63
2024-05-09T17:25:54.089Z,100933.69
2024-05-09T17:28:21.605Z,100932.25
2024-05-09T17:30:52.330Z,100937.69
2024-05-09T17:33:22.676Z,100933.63
2024-05-09T17:35:52.957Z,100928.41
2024-05-09T17:38:23.068Z,100927.56
2024-05-09T17:40:53.673Z,100923.31
2024-05-09T17:43:21.305Z,100919.06
2024-05-09T17:45:51.634Z,100922.94
2024-05-09T17:48:19.503Z,100924.97
2024-05-09T17:50:52.369Z,100918.78
2024-05-09T17:53:20.167Z,100919.00
2024-05-09T17:55:54.058Z,100926.25
2024-05-09T17:58:22.358Z,100921.53
2024-05-09T18:00:53.009Z,100922.25
2024-05-09T18:03:23.728Z,100924.47
2024-05-09T18:05:56.701Z,100917.59
2024-05-09T18:08:24.188Z,100920.28
2024-05-09T18:10:55.565Z,100922.22
2024-05-09T18:13:23.507Z,100925.13
2024-05-09T18:15:53.677Z,100913.78
2024-05-09T18:18:21.266Z,100921.63
2024-05-09T18:20:51.385Z,100920.25
2024-05-09T18:23:21.489Z,100927.81
2024-05-09T18:28:39.668Z,100925.56
2024-05-09T18:31:09.674Z,100923.56
2024-05-09T18:33:37.146Z,100933.03
2024-05-09T18:36:07.726Z,100929.81
2024-05-09T18:38:38.954Z,100919.69
2024-05-09T18:41:09.242Z,100932.34
2024-05-09T18:43:44.948Z,100931.06
2024-05-09T18:49:33.289Z,100929.41
2024-05-09T18:52:00.835Z,100933.50
2024-05-09T18:54:31.237Z,100935.09
2024-05-09T18:56:58.530Z,100933.88
2024-05-09T18:59:28.557Z,100937.63
2024-05-09T19:01:56.042Z,100938.66
2024-05-09T19:04:29.151Z,100944.22
2024-05-09T19:06:56.961Z,100939.09
2024-05-09T19:09:27.451Z,100942.81
2024-05-09T19:11:55.248Z,100940.06
2024-05-09T19:14:26.412Z,100941.41
2024-05-09T19:16:54.297Z,100938.16
2024-05-09T19:19:24.823Z,100941.34
2024-05-09T19:21:57.552Z,100955.19
2024-05-09T19:24:28.055Z,100956.28
2024-05-09T19:26:56.381Z,100956.75
2024-05-09T19:29:26.531Z,100957.72
2024-05-09T19:31:54.000Z,100949.63
2024-05-09T19:34:23.863Z,100956.28
2024-05-09T19:36:51.451Z,100960.31
2024-05-09T19:39:24.755Z,100961.47
2024-05-09T19:41:52.611Z,100964.06
2024-05-09T19:44:22.698Z,100963.97
2024-05-09T19:46:50.095Z,100959.91
2024-05-09T19:49:20.289Z,100966.97
2024-05-09T19:51:47.670Z,100959.06
2024-05-09T19:54:17.859Z,100960.88
2024-05-09T19:56:48.173Z,100966.50
2024-05-09T19:59:18.317Z,100955.72
2024-05-09T20:01:45.748Z,100959.38
2024-05-09T20:04:16.108Z,100965.66
2024-05-09T20:06:43.530Z,100965.97
2024-05-09T20:09:13.342Z,100959.75
2024-05-09T20:11:40.707Z,100965.16
2024-05-09T20:14:14.792Z,100970.53
2024-05-09T20:16:44.238Z,100966.28
2024-05-09T20:19:14.226Z,100967.47
2024-05-09T20:21:42.245Z,100979.59
2024-05-09T20:24:12.505Z,100959.28
2024-05-09T20:26:40.428Z,100981.31
2024-05-09T20:29:13.031Z,100974.41
2024-05-09T20:31:41.268Z,100984.56
2024-05-09T20:34:11.118Z,100974.47
2024-05-09T20:36:38.477Z,100977.59
2024-05-09T20:39:08.463Z,100977.09
2024-05-09T20:41:37.138Z,100973.69
2024-05-09T20:44:07.413Z,100979.22
2024-05-09T20:46:37.384Z,100966.84
2024-05-09T20:49:07.605Z,100974.47
2024-05-09T20:51:35.055Z,100971.38
2024-05-09T20:54:04.829Z,100974.63
2024-05-09T20:56:32.333Z,100970.75
2024-05-09T20:59:02.214Z,100974.88
2024-05-09T21:01:29.711Z,100968.41
2024-05-09T21:04:02.782Z,100970.69
2024-05-09T21:06:30.117Z,100969.41
2024-05-09T21:09:00.537Z,100976.25
2024-05-09T21:11:28.010Z,100975.75
2024-05-09T21:13:57.946Z,100979.81
2024-05-09T21:16:25.503Z,100973.09
2024-05-09T21:18:55.645Z,100975.09
2024-05-09T21:21:25.553Z,100975.47
2024-05-09T21:23:55.684Z,100970.34
2024-05-09T21:26:23.847Z,100972.50
2024-05-09T21:28:53.808Z,100977.16
2024-05-09T21:31:21.289Z,100974.81
2024-05-09T21:33:51.617Z,100972.38
2024-05-09T21:36:19.047Z,100966.97
2024-05-09T21:38:51.668Z,100970.97
2024-05-09T21:41:18.850Z,100970.25
2024-05-09T21:44:08.072Z,100968.09
2024-05-09T21:46:35.478Z,100962.13
2024-05-09T21:49:06.002Z,100965.94
2024-05-09T21:51:33.459Z,100965.44
2024-05-09T21:54:06.429Z,100967.66
2024-05-09T21:56:33.769Z,100965.25
2024-05-09T21:59:03.755Z,100963.72
2024-05-09T22:01:32.365Z,100959.63
2024-05-09T22:04:02.596Z,100957.22
2024-05-09T22:06:29.902Z,100961.03
2024-05-09T22:09:03.214Z,100959.53
2024-05-09T22:11:33.236Z,100955.34
2024-05-09T22:14:03.159Z,100952.78
2024-05-09T22:16:33.422Z,100956.56
2024-05-09T22:19:03.518Z,100959.59
2024-05-09T22:21:31.012Z,100960.63
2024-05-09T22:24:00.846Z,100957.34
2024-05-09T22:26:28.257Z,100950.34
2024-05-09T22:29:00.933Z,100952.19
2024-05-09T22:31:28.495Z,100942.63
2024-05-09T22:33:58.799Z,100958.78
2024-05-09T22:36:26.134Z,100957.09
2024-05-09T22:38:56.238Z,100949.31
2024-05-09T22:41:23.516Z,100953.97
2024-05-09T22:43:54.035Z,100953.31
2024-05-09T22:46:24.107Z,100953.44
2024-05-09T22:48:54.624Z,100956.31
2024-05-09T22:51:22.255Z,100946.81
2024-05-09T22:53:52.494Z,100956.50
2024-05-09T22:56:27.269Z,100937.31
2024-05-09T22:58:57.306Z,100944.38
2024-05-09T23:01:27.817Z,100946.13
2024-05-09T23:03:57.787Z,100947.00
2024-05-09T23:06:25.392Z,100950.69
2024-05-09T23:08:58.209Z,100957.84
2024-05-09T23:11:25.535Z,100951.50
2024-05-09T23:13:55.430Z,100949.63
2024-05-09T23:16:22.888Z,100952.41
2024-05-09T23:18:55.653Z,100955.16
2024-05-09T23:21:23.374Z,100963.09
2024-05-09T23:23:53.304Z,100957.84
2024-05-09T23:26:20.848Z,100952.34
2024-05-09T23:28:51.393Z,100955.22
2024-05-09T23:31:18.728Z,100950.16
2024-05-09T23:33:49.107Z,100956.03
2024-05-09T23:36:19.306Z,100957.03
2024-05-09T23:38:49.310Z,100960.69
2024-05-09T23:41:16.495Z,100954.50
2024-05-09T23:43:46.671Z,100961.81
2024-05-09T23:46:14.039Z,100954.81
2024-05-09T23:50:35.662Z,100957.78
2024-05-09T23:53:05.845Z,100948.81
2024-05-09T23:55:36.268Z,100945.28
2024-05-09T23:58:03.675Z,100939.75
